HBBA/BJM METAR and TAF weather

Enter ICAO airport designator
Station Type Date Time Source
HBBA METAR 2023/02/03 17:00 UTC NOAA

HBBA 031700Z 00000KT 9999 FEW025 BKN10025/18 Q1012 NOSIG


Station Type Date Time Source
HBBA Decoded METAR 2023/02/03 17:00 UTC NOAA

Bujumbura, Burundi (HBBA) 03-19S 029-19E 783M
Feb 03, 2023 - 12:00 PM EST / 2023.02.03 1700 UTC
Wind: Calm:0
Visibility: greater than 7 mile(s):0
Sky conditions: mostly cloudy
Pressure (altimeter): 29.88 in. Hg (1012 hPa)
ob: HBBA 031700Z 00000KT 9999 FEW025 BKN10025/18 Q1012 NOSIG
cycle: 17

Station Type Date Time Source
HBBA TAF 2023/02/04 00:21 UTC NOAA

TAF TAF HBBA 032300Z 0400/0506 00000KT CAVOK
BECMG 0402/0404 36003KT 9999 FEW030 SCT100
BECMG 0407/0409 18010KT
BECMG 0417/0410 00000KT CAVOK
BECMG 0503/0505 36004KT 9999 FEW030 BKN100

Example: see airport list